Time;durP1;ratioP1;P1;durP2;ratioP2;P2;SDS_P1;SDS_P2;PMS_P1;PMS_P2;Temp;Humidity;BMP_temperature;BMP_pressure;BME280_temperature;BME280_humidity;BME280_pressure;Samples;Min_cycle;Max_cycle;Signal;HPM_P1;HPM_P2
2023/12/24 00:00:24;;;;;;;3.72;1.63;;;10.00;99.90;;;;;;5052149;28;20768;-56
2023/12/24 00:02:51;;;;;;;3.40;1.70;;;9.90;99.90;;;;;;5050934;28;20701;-56
2023/12/24 00:05:17;;;;;;;5.95;1.67;;;10.00;99.90;;;;;;5051858;28;20254;-56
2023/12/24 00:07:42;;;;;;;4.75;1.40;;;10.00;99.90;;;;;;5052134;28;20193;-56
2023/12/24 00:10:08;;;;;;;3.40;1.17;;;9.90;99.90;;;;;;5051718;28;20193;-56
2023/12/24 00:12:34;;;;;;;2.92;1.13;;;10.00;99.90;;;;;;5051652;28;20166;-55
2023/12/24 00:15:01;;;;;;;2.70;1.27;;;9.90;99.90;;;;;;5051624;28;20174;-56
2023/12/24 00:17:26;;;;;;;3.70;1.42;;;9.90;99.90;;;;;;5051656;28;20162;-56
2023/12/24 00:19:52;;;;;;;4.28;1.85;;;9.90;99.90;;;;;;5051501;28;20224;-56
2023/12/24 00:22:17;;;;;;;2.60;1.35;;;9.90;99.90;;;;;;5051159;28;20683;-55
2023/12/24 00:24:44;;;;;;;4.60;1.38;;;9.90;99.90;;;;;;5051624;28;20175;-57
2023/12/24 00:27:09;;;;;;;2.22;1.27;;;9.80;99.90;;;;;;5051720;28;20257;-56
2023/12/24 00:29:36;;;;;;;1.67;1.40;;;9.80;99.90;;;;;;5051542;28;20245;-56
2023/12/24 00:32:01;;;;;;;2.60;1.02;;;9.80;99.90;;;;;;5051378;28;20178;-56
2023/12/24 00:34:27;;;;;;;1.58;1.33;;;9.80;99.90;;;;;;5051650;28;20166;-59
2023/12/24 00:36:52;;;;;;;1.10;1.00;;;9.70;99.90;;;;;;5051214;28;20178;-56
2023/12/24 00:39:18;;;;;;;1.00;0.60;;;9.70;99.90;;;;;;5051286;28;20301;-56
2023/12/24 00:41:43;;;;;;;1.98;0.95;;;9.70;99.90;;;;;;5051808;28;20229;-58
2023/12/24 00:44:09;;;;;;;2.45;1.20;;;9.70;99.90;;;;;;5051529;28;20630;-56
2023/12/24 00:46:34;;;;;;;1.10;0.98;;;9.70;99.90;;;;;;5051270;28;20170;-57
2023/12/24 00:49:00;;;;;;;3.35;1.33;;;9.70;99.90;;;;;;5051214;28;20652;-58
2023/12/24 00:51:26;;;;;;;2.15;1.17;;;9.70;99.90;;;;;;5051360;28;20721;-58
2023/12/24 00:53:51;;;;;;;3.05;1.08;;;9.70;99.90;;;;;;5051007;28;20291;-58
2023/12/24 00:56:17;;;;;;;2.55;0.90;;;9.80;99.90;;;;;;5051143;28;20568;-58
2023/12/24 00:58:42;;;;;;;7.82;1.42;;;9.80;99.90;;;;;;5051501;28;20204;-56
2023/12/24 01:01:08;;;;;;;1.08;0.82;;;9.80;99.90;;;;;;5050786;28;20175;-55
2023/12/24 01:03:34;;;;;;;4.90;1.17;;;9.80;99.90;;;;;;5050641;28;20171;-56
2023/12/24 01:05:59;;;;;;;3.47;1.13;;;9.80;99.90;;;;;;5051109;28;20197;-56
2023/12/24 01:08:25;;;;;;;3.05;1.30;;;9.80;99.90;;;;;;5051113;28;20220;-56
2023/12/24 01:10:50;;;;;;;1.15;0.95;;;9.70;99.90;;;;;;5051128;28;20177;-57
2023/12/24 01:13:19;;;;;;;0.98;0.63;;;9.70;99.90;;;;;;5051250;28;20261;-56
2023/12/24 01:15:46;;;;;;;2.00;1.17;;;9.60;99.90;;;;;;5051180;28;20171;-57
2023/12/24 01:18:12;;;;;;;2.28;1.25;;;9.60;99.90;;;;;;5051109;28;20539;-57
2023/12/24 01:20:38;;;;;;;1.10;1.00;;;9.60;99.90;;;;;;5050928;28;20308;-57
2023/12/24 01:23:04;;;;;;;1.83;1.10;;;9.60;99.90;;;;;;5050927;28;20824;-58
2023/12/24 01:25:29;;;;;;;4.55;1.20;;;9.60;99.90;;;;;;5050562;28;20167;-58
2023/12/24 01:27:55;;;;;;;1.55;0.70;;;9.60;99.90;;;;;;5050697;28;20174;-58
2023/12/24 01:30:20;;;;;;;1.70;0.60;;;9.60;99.90;;;;;;5051096;28;20169;-58
2023/12/24 01:32:46;;;;;;;2.42;1.05;;;9.60;99.90;;;;;;5050814;28;20583;-59
2023/12/24 01:35:12;;;;;;;1.23;0.63;;;9.60;99.90;;;;;;5051559;28;20163;-56
2023/12/24 01:37:37;;;;;;;1.25;0.93;;;9.60;99.90;;;;;;5054858;28;20171;-56
2023/12/24 01:40:03;;;;;;;2.28;1.10;;;9.60;99.90;;;;;;5054418;28;20592;-57
2023/12/24 01:42:28;;;;;;;1.88;0.80;;;9.60;99.90;;;;;;5054458;28;20744;-57
2023/12/24 01:44:54;;;;;;;0.60;0.60;;;9.70;99.90;;;;;;5054518;28;20174;-57
2023/12/24 01:47:20;;;;;;;1.27;0.57;;;9.70;99.90;;;;;;5054354;28;20166;-57
2023/12/24 01:49:51;;;;;;;1.88;0.88;;;9.70;99.90;;;;;;5054322;28;20174;-54
2023/12/24 01:52:18;;;;;;;1.63;0.85;;;9.70;99.90;;;;;;5054330;28;20162;-56
2023/12/24 01:54:47;;;;;;;1.10;0.98;;;9.70;99.90;;;;;;5054781;28;20577;-56
2023/12/24 01:57:13;;;;;;;2.10;0.95;;;9.80;99.90;;;;;;5054910;28;20536;-56
2023/12/24 01:59:40;;;;;;;0.77;0.77;;;9.70;99.90;;;;;;5054549;28;20349;-56
2023/12/24 02:02:07;;;;;;;1.52;0.85;;;9.80;99.90;;;;;;5052856;28;20185;-55
2023/12/24 02:04:33;;;;;;;1.33;0.88;;;9.80;99.90;;;;;;5053930;28;20179;-56
2023/12/24 02:06:58;;;;;;;2.67;0.85;;;9.70;99.90;;;;;;5054053;28;20170;-56
2023/12/24 02:09:24;;;;;;;0.50;0.50;;;9.70;99.90;;;;;;5053863;28;20163;-54
2023/12/24 02:11:50;;;;;;;0.70;0.70;;;9.70;99.90;;;;;;5053992;28;20167;-56
2023/12/24 02:14:16;;;;;;;0.50;0.50;;;9.70;99.90;;;;;;5054101;28;20253;-55
2023/12/24 02:16:45;;;;;;;2.60;1.00;;;9.70;99.90;;;;;;5054360;28;20198;-56
2023/12/24 02:19:18;;;;;;;0.40;0.40;;;9.70;99.90;;;;;;5054228;28;20680;-56
2023/12/24 02:21:44;;;;;;;0.95;0.82;;;9.70;99.90;;;;;;5054377;28;20187;-56
2023/12/24 02:24:10;;;;;;;0.77;0.63;;;9.70;99.90;;;;;;5054071;28;20171;-56
2023/12/24 02:26:42;;;;;;;1.30;0.77;;;9.70;99.90;;;;;;5053502;28;20170;-56
2023/12/24 02:29:20;;;;;;;1.35;0.70;;;9.70;99.90;;;;;;5053659;28;20174;-56
2023/12/24 02:31:47;;;;;;;0.80;0.77;;;9.70;99.90;;;;;;5053940;28;20656;-55
2023/12/24 02:34:17;;;;;;;0.75;0.75;;;9.70;99.90;;;;;;5054039;28;20571;-56
2023/12/24 02:36:48;;;;;;;5.65;0.95;;;9.70;99.90;;;;;;5053903;28;20170;-56
2023/12/24 02:39:14;;;;;;;1.20;1.00;;;9.60;99.90;;;;;;5053734;28;20765;-56
2023/12/24 02:41:40;;;;;;;0.88;0.70;;;11.50;99.90;;;;;;5053766;28;20254;-56
2023/12/24 02:44:06;;;;;;;0.65;0.65;;;9.60;99.90;;;;;;5053390;28;20634;-56
2023/12/24 02:46:31;;;;;;;2.42;1.00;;;9.60;99.90;;;;;;5052789;28;20174;-56
2023/12/24 02:48:57;;;;;;;1.60;1.40;;;9.60;99.90;;;;;;5052554;28;20163;-55
2023/12/24 02:51:22;;;;;;;1.35;1.20;;;9.60;99.90;;;;;;5053219;28;20278;-55
2023/12/24 02:53:48;;;;;;;1.05;0.90;;;9.60;99.90;;;;;;5053032;28;20238;-56
2023/12/24 02:56:13;;;;;;;0.90;0.90;;;9.60;99.90;;;;;;5053092;28;20186;-58
2023/12/24 02:58:39;;;;;;;1.17;1.08;;;9.60;99.90;;;;;;5053021;28;20207;-57
2023/12/24 03:01:04;;;;;;;0.77;0.77;;;9.60;99.90;;;;;;5053279;28;20598;-57
2023/12/24 03:03:30;;;;;;;1.45;1.13;;;9.60;99.90;;;;;;5052543;28;20693;-57
2023/12/24 03:05:55;;;;;;;1.58;1.10;;;9.60;99.90;;;;;;5053012;28;20646;-57
2023/12/24 03:08:21;;;;;;;3.28;1.30;;;9.60;99.90;;;;;;5052967;28;20244;-57
2023/12/24 03:10:46;;;;;;;1.48;1.23;;;9.60;99.90;;;;;;5052914;28;20175;-56
2023/12/24 03:13:12;;;;;;;0.85;0.85;;;9.60;99.90;;;;;;5053442;28;20221;-56
2023/12/24 03:15:38;;;;;;;1.52;1.00;;;9.60;99.90;;;;;;5053025;28;20175;-56
2023/12/24 03:18:04;;;;;;;1.38;1.27;;;9.60;99.90;;;;;;5052543;28;20705;-56
2023/12/24 03:20:30;;;;;;;1.05;1.00;;;9.60;99.90;;;;;;5052612;28;20175;-55
2023/12/24 03:22:55;;;;;;;1.20;1.10;;;9.60;99.90;;;;;;5052649;28;20178;-57
2023/12/24 03:25:21;;;;;;;1.20;1.10;;;9.60;99.90;;;;;;5052281;28;20174;-57
2023/12/24 03:27:46;;;;;;;1.60;1.50;;;9.60;99.90;;;;;;5052430;28;20504;-57
2023/12/24 03:30:12;;;;;;;4.70;1.55;;;9.70;99.90;;;;;;5053065;28;20190;-56
2023/12/24 03:32:38;;;;;;;1.55;1.40;;;9.70;99.90;;;;;;5052424;28;20227;-56
2023/12/24 03:35:04;;;;;;;2.22;1.60;;;9.70;99.90;;;;;;5052640;28;20204;-57
2023/12/24 03:37:29;;;;;;;3.88;1.90;;;9.70;99.90;;;;;;5052500;28;20163;-56
2023/12/24 03:39:55;;;;;;;1.60;1.50;;;9.70;99.90;;;;;;5052203;28;20198;-57
2023/12/24 03:42:20;;;;;;;1.40;1.30;;;9.70;99.90;;;;;;5052540;28;20246;-57
2023/12/24 03:44:46;;;;;;;4.28;1.60;;;9.70;99.90;;;;;;5052269;28;20185;-57
2023/12/24 03:47:11;;;;;;;2.80;1.40;;;9.70;99.90;;;;;;5052595;28;20167;-56
2023/12/24 03:49:37;;;;;;;1.42;1.33;;;9.80;99.90;;;;;;5052160;28;20197;-56
2023/12/24 03:52:02;;;;;;;1.67;1.23;;;9.80;99.90;;;;;;5051914;28;20220;-56
2023/12/24 03:54:28;;;;;;;0.70;0.70;;;9.80;99.90;;;;;;5051561;28;20248;-56
2023/12/24 03:56:53;;;;;;;0.75;0.75;;;9.80;99.90;;;;;;5052266;28;20621;-57
2023/12/24 03:59:19;;;;;;;1.38;0.95;;;9.80;99.90;;;;;;5051412;28;20217;-57
2023/12/24 04:01:45;;;;;;;1.35;0.90;;;9.80;99.90;;;;;;5051863;28;20246;-56
2023/12/24 04:04:10;;;;;;;0.80;0.80;;;9.80;99.90;;;;;;5052277;28;20527;-57
2023/12/24 04:06:36;;;;;;;0.57;0.57;;;9.80;99.90;;;;;;5051763;28;20257;-55
2023/12/24 04:09:02;;;;;;;0.52;0.52;;;9.80;99.90;;;;;;5051846;28;20175;-56
2023/12/24 04:11:27;;;;;;;0.88;0.88;;;9.80;99.90;;;;;;5051984;28;20597;-57
2023/12/24 04:13:53;;;;;;;0.50;0.50;;;9.80;99.90;;;;;;5051780;28;20171;-58
2023/12/24 04:16:18;;;;;;;0.35;0.22;;;9.80;99.90;;;;;;5051687;28;20179;-57
2023/12/24 04:18:44;;;;;;;1.05;0.70;;;9.80;99.90;;;;;;5051983;28;20248;-57
2023/12/24 04:21:09;;;;;;;0.50;0.50;;;9.80;99.90;;;;;;5052013;28;20190;-57
2023/12/24 04:23:35;;;;;;;0.88;0.68;;;9.80;99.90;;;;;;5051160;28;20569;-57
2023/12/24 04:26:00;;;;;;;0.65;0.63;;;9.80;99.90;;;;;;5051328;28;20202;-56
2023/12/24 04:28:26;;;;;;;0.32;0.32;;;9.70;99.90;;;;;;5051482;28;20171;-57
2023/12/24 04:30:52;;;;;;;0.30;0.30;;;9.70;99.90;;;;;;5051442;28;20173;-57
2023/12/24 04:33:18;;;;;;;0.30;0.30;;;9.70;99.90;;;;;;5051386;28;20296;-57
2023/12/24 04:35:45;;;;;;;0.30;0.30;;;9.70;99.90;;;;;;5051903;28;20167;-56
2023/12/24 04:38:10;;;;;;;0.22;0.22;;;9.70;99.90;;;;;;5051947;28;20263;-57
2023/12/24 04:40:36;;;;;;;0.50;0.50;;;9.70;99.90;;;;;;5051562;28;20681;-57
2023/12/24 04:43:02;;;;;;;1.55;0.30;;;9.70;99.90;;;;;;5051237;28;20622;-56
2023/12/24 04:45:27;;;;;;;0.30;0.30;;;9.70;99.90;;;;;;5051281;28;20196;-57
2023/12/24 04:47:55;;;;;;;0.40;0.30;;;9.70;99.90;;;;;;5051317;28;20186;-57
2023/12/24 04:50:21;;;;;;;0.55;0.50;;;9.70;99.90;;;;;;5051177;28;20170;-56
2023/12/24 04:52:47;;;;;;;0.17;0.17;;;9.70;99.90;;;;;;5051163;28;20224;-56
2023/12/24 04:55:13;;;;;;;0.20;0.20;;;9.70;99.90;;;;;;5051169;28;20573;-57
2023/12/24 04:57:39;;;;;;;0.38;0.38;;;9.70;99.90;;;;;;5051474;28;20212;-57
2023/12/24 05:00:07;;;;;;;0.28;0.25;;;9.70;99.90;;;;;;5051117;28;20203;-58
2023/12/24 05:02:33;;;;;;;1.65;0.30;;;9.70;99.90;;;;;;5051414;28;20166;-57
2023/12/24 05:05:00;;;;;;;0.28;0.28;;;9.70;99.90;;;;;;5051372;28;20171;-57
2023/12/24 05:07:25;;;;;;;0.32;0.28;;;9.70;99.90;;;;;;5049913;28;20174;-57
2023/12/24 05:09:51;;;;;;;0.30;0.30;;;9.70;99.90;;;;;;5051092;28;20170;-57
2023/12/24 05:12:17;;;;;;;0.30;0.30;;;9.70;99.90;;;;;;5054862;28;20163;-57
2023/12/24 05:14:42;;;;;;;0.20;0.20;;;9.70;99.90;;;;;;5055481;28;20174;-57
2023/12/24 05:17:08;;;;;;;0.90;0.47;;;9.70;99.90;;;;;;5054989;28;20167;-57
2023/12/24 05:19:33;;;;;;;0.38;0.20;;;9.70;99.90;;;;;;5054915;28;20213;-57
2023/12/24 05:21:59;;;;;;;0.28;0.28;;;9.70;99.90;;;;;;5054820;28;20167;-57
2023/12/24 05:24:24;;;;;;;0.10;0.10;;;9.70;99.90;;;;;;5054547;28;20181;-57
2023/12/24 05:26:51;;;;;;;0.00;0.00;;;9.70;99.90;;;;;;5053840;28;20181;-57
2023/12/24 05:29:18;;;;;;;0.43;0.43;;;9.70;99.90;;;;;;5054595;28;20239;-57
2023/12/24 05:31:44;;;;;;;0.00;0.00;;;9.70;99.90;;;;;;5055086;28;20177;-57
2023/12/24 05:34:09;;;;;;;0.22;0.22;;;9.70;99.90;;;;;;5055095;28;20249;-57
2023/12/24 05:36:36;;;;;;;0.30;0.30;;;9.70;99.90;;;;;;5054700;28;20167;-57
2023/12/24 05:39:03;;;;;;;0.22;0.22;;;9.70;99.90;;;;;;5054481;28;20285;-56
2023/12/24 05:41:28;;;;;;;1.27;0.52;;;9.70;99.90;;;;;;5054796;28;20249;-56
2023/12/24 05:43:54;;;;;;;0.30;0.30;;;9.70;99.90;;;;;;5054806;28;20186;-57
2023/12/24 05:46:20;;;;;;;0.20;0.20;;;9.70;99.90;;;;;;5054446;28;20159;-57
2023/12/24 05:48:46;;;;;;;0.22;0.22;;;9.70;99.90;;;;;;5054619;28;20196;-56
2023/12/24 05:51:11;;;;;;;0.20;0.20;;;9.70;99.90;;;;;;5054709;28;20170;-57
2023/12/24 05:53:37;;;;;;;0.10;0.10;;;9.70;99.90;;;;;;5053898;28;20264;-54
2023/12/24 05:56:03;;;;;;;0.70;0.40;;;9.70;99.90;;;;;;5054011;28;20527;-54
2023/12/24 05:58:28;;;;;;;0.30;0.30;;;9.70;99.90;;;;;;5054115;28;20201;-55
2023/12/24 06:00:54;;;;;;;0.30;0.30;;;9.70;99.90;;;;;;5054159;28;20171;-55
2023/12/24 06:03:20;;;;;;;1.25;0.20;;;9.70;99.90;;;;;;5054147;28;20167;-55
2023/12/24 06:05:45;;;;;;;0.30;0.30;;;9.70;99.90;;;;;;5054116;28;20245;-55
2023/12/24 06:08:15;;;;;;;0.35;0.35;;;9.70;99.90;;;;;;5054453;28;20221;-54
2023/12/24 06:10:41;;;;;;;0.00;0.00;;;9.80;99.90;;;;;;5054714;28;20181;-55
2023/12/24 06:13:06;;;;;;;0.22;0.22;;;9.80;99.90;;;;;;5053918;28;20694;-55
2023/12/24 06:15:32;;;;;;;0.10;0.10;;;9.80;99.90;;;;;;5053951;28;20174;-55
2023/12/24 06:17:58;;;;;;;0.30;0.30;;;9.80;99.90;;;;;;5054130;28;20173;-55
2023/12/24 06:20:23;;;;;;;0.20;0.17;;;9.80;99.90;;;;;;5053733;28;20681;-55
2023/12/24 06:22:49;;;;;;;0.30;0.30;;;9.80;99.90;;;;;;5052173;28;20626;-57
2023/12/24 06:25:15;;;;;;;0.13;0.13;;;9.80;99.90;;;;;;5053148;28;20185;-57
2023/12/24 06:27:41;;;;;;;0.08;0.08;;;9.90;99.90;;;;;;5054477;28;20174;-57
2023/12/24 06:30:07;;;;;;;0.30;0.30;;;9.90;99.90;;;;;;5053929;28;20174;-56
2023/12/24 06:32:32;;;;;;;0.10;0.10;;;9.90;99.90;;;;;;5053610;28;20171;-58
2023/12/24 06:34:58;;;;;;;0.60;0.40;;;9.90;99.90;;;;;;5052390;28;20205;-57
2023/12/24 06:37:24;;;;;;;0.15;0.15;;;9.90;99.90;;;;;;5053461;28;20163;-58
2023/12/24 06:39:49;;;;;;;0.10;0.10;;;9.90;99.90;;;;;;5053447;28;20214;-58
2023/12/24 06:42:15;;;;;;;0.20;0.20;;;9.90;99.90;;;;;;5053383;28;20158;-57
2023/12/24 06:44:43;;;;;;;0.38;0.38;;;9.90;99.90;;;;;;5053758;28;20259;-57
2023/12/24 06:47:09;;;;;;;2.45;0.30;;;9.90;99.90;;;;;;5053653;28;20163;-57
2023/12/24 06:49:35;;;;;;;0.20;0.20;;;9.90;99.90;;;;;;5053168;28;20521;-57
2023/12/24 06:52:00;;;;;;;0.22;0.22;;;9.90;99.90;;;;;;5053440;28;20170;-57
2023/12/24 06:54:26;;;;;;;0.30;0.30;;;10.00;99.90;;;;;;5052806;28;20693;-57
2023/12/24 06:56:51;;;;;;;0.43;0.43;;;10.00;99.90;;;;;;5052534;28;20626;-57
2023/12/24 06:59:17;;;;;;;0.20;0.20;;;10.00;99.90;;;;;;5052548;28;20278;-57
2023/12/24 07:01:42;;;;;;;0.20;0.17;;;10.00;99.90;;;;;;5053382;28;20163;-57
2023/12/24 07:04:08;;;;;;;0.55;0.52;;;10.00;99.90;;;;;;5053405;28;20167;-57
2023/12/24 07:06:34;;;;;;;0.40;0.40;;;10.00;99.90;;;;;;5051591;28;20524;-57
2023/12/24 07:08:59;;;;;;;0.88;0.52;;;10.00;99.90;;;;;;5052292;28;20499;-57
2023/12/24 07:11:25;;;;;;;0.28;0.28;;;10.00;99.90;;;;;;5052784;28;20519;-58
2023/12/24 07:13:50;;;;;;;0.40;0.40;;;10.00;99.90;;;;;;5052716;28;20250;-57
2023/12/24 07:16:16;;;;;;;0.40;0.38;;;10.00;99.90;;;;;;5052885;28;20171;-55
2023/12/24 07:18:42;;;;;;;0.57;0.30;;;10.10;99.90;;;;;;5053058;28;20205;-55
2023/12/24 07:21:07;;;;;;;0.77;0.50;;;10.10;99.90;;;;;;5052592;28;20174;-57
2023/12/24 07:23:33;;;;;;;0.50;0.50;;;10.10;99.90;;;;;;5052359;28;20171;-55
2023/12/24 07:25:58;;;;;;;0.40;0.40;;;10.10;99.90;;;;;;5052465;28;20167;-55
2023/12/24 07:28:24;;;;;;;0.50;0.50;;;10.10;99.90;;;;;;5052597;28;20159;-55
2023/12/24 07:30:49;;;;;;;0.45;0.45;;;10.10;99.90;;;;;;5052495;28;20176;-55
2023/12/24 07:33:15;;;;;;;1.30;0.55;;;10.10;99.90;;;;;;5051776;28;20202;-55
2023/12/24 07:35:41;;;;;;;1.30;0.77;;;10.10;99.90;;;;;;5052920;28;20167;-55
2023/12/24 07:38:06;;;;;;;0.35;0.35;;;10.10;99.90;;;;;;5052330;28;20691;-55
2023/12/24 07:40:32;;;;;;;0.47;0.40;;;10.20;99.90;;;;;;5052232;28;20581;-55
2023/12/24 07:42:59;;;;;;;0.50;0.50;;;10.20;99.90;;;;;;5052273;28;20170;-55
2023/12/24 07:45:26;;;;;;;1.23;0.65;;;10.20;99.90;;;;;;5052218;28;20175;-55
2023/12/24 07:47:52;;;;;;;0.40;0.40;;;10.20;99.90;;;;;;5052182;28;20242;-55
2023/12/24 07:50:18;;;;;;;0.45;0.45;;;10.20;99.90;;;;;;5052180;28;20255;-55
2023/12/24 07:52:43;;;;;;;0.20;0.20;;;10.20;99.90;;;;;;5052443;28;20170;-55
2023/12/24 07:55:09;;;;;;;0.40;0.40;;;11.10;99.90;;;;;;5052003;28;20210;-55
2023/12/24 07:57:34;;;;;;;0.40;0.40;;;10.20;99.90;;;;;;5051891;28;20186;-55
2023/12/24 08:00:00;;;;;;;1.33;0.57;;;10.20;99.90;;;;;;5051876;28;20259;-55
2023/12/24 08:02:26;;;;;;;1.00;0.63;;;10.30;99.90;;;;;;5051939;28;20166;-55
2023/12/24 08:04:54;;;;;;;0.50;0.40;;;10.30;99.90;;;;;;5051855;28;20186;-55
2023/12/24 08:07:20;;;;;;;1.98;0.77;;;10.30;99.90;;;;;;5052073;28;20179;-55
2023/12/24 08:09:45;;;;;;;0.43;0.43;;;10.30;99.90;;;;;;5051852;28;20166;-55
2023/12/24 08:12:11;;;;;;;0.38;0.22;;;10.30;99.90;;;;;;5052161;28;20613;-55
2023/12/24 08:14:36;;;;;;;0.38;0.38;;;10.40;99.90;;;;;;5050464;28;20599;-55
2023/12/24 08:17:02;;;;;;;0.35;0.35;;;10.40;99.90;;;;;;5051878;28;20188;-55
2023/12/24 08:19:27;;;;;;;0.25;0.20;;;10.40;99.90;;;;;;5051520;28;20213;-55
2023/12/24 08:21:53;;;;;;;0.30;0.30;;;10.40;99.90;;;;;;5051520;28;20224;-55
2023/12/24 08:24:18;;;;;;;0.85;0.50;;;10.50;99.90;;;;;;5051289;28;20671;-55
2023/12/24 08:26:44;;;;;;;0.22;0.22;;;10.50;99.90;;;;;;5051429;28;20166;-55
2023/12/24 08:29:10;;;;;;;0.20;0.10;;;10.50;99.90;;;;;;5051845;28;20254;-55
2023/12/24 08:31:36;;;;;;;0.57;0.20;;;10.50;99.90;;;;;;5051258;28;20165;-55
2023/12/24 08:34:02;;;;;;;1.10;0.45;;;10.50;99.90;;;;;;5051361;28;20170;-55
2023/12/24 08:36:28;;;;;;;0.40;0.40;;;10.50;99.90;;;;;;5051572;28;20173;-55
2023/12/24 08:38:54;;;;;;;0.90;0.35;;;10.60;99.90;;;;;;5051296;28;20190;-55
2023/12/24 08:41:19;;;;;;;0.40;0.40;;;10.50;99.90;;;;;;5051533;28;20170;-55
2023/12/24 08:43:45;;;;;;;0.25;0.25;;;10.50;99.90;;;;;;5051328;28;20297;-55
2023/12/24 08:46:11;;;;;;;0.10;0.10;;;10.50;99.90;;;;;;5051655;28;20178;-55
2023/12/24 08:48:37;;;;;;;0.17;0.17;;;10.40;99.90;;;;;;5051376;28;20166;-55
2023/12/24 08:51:03;;;;;;;0.30;0.30;;;10.50;99.90;;;;;;5051450;28;20261;-55
2023/12/24 08:53:29;;;;;;;0.30;0.30;;;10.40;99.90;;;;;;5051263;28;20174;-55
2023/12/24 08:55:54;;;;;;;0.52;0.20;;;10.50;99.90;;;;;;5051245;28;20224;-55
2023/12/24 08:58:20;;;;;;;0.70;0.30;;;10.50;99.90;;;;;;5049795;28;20174;-55
2023/12/24 09:00:46;;;;;;;0.28;0.28;;;10.50;99.90;;;;;;5051136;28;20179;-55
2023/12/24 09:03:11;;;;;;;0.20;0.20;;;10.50;99.90;;;;;;5051318;28;20174;-55
2023/12/24 09:05:37;;;;;;;0.73;0.40;;;10.50;99.90;;;;;;5050865;28;20178;-55
2023/12/24 09:08:03;;;;;;;0.43;0.43;;;10.50;99.90;;;;;;5051050;28;20530;-55
2023/12/24 09:10:28;;;;;;;0.30;0.30;;;10.50;99.90;;;;;;5051077;28;20179;-56
2023/12/24 09:12:54;;;;;;;0.45;0.45;;;10.60;99.90;;;;;;5051056;28;20228;-55
2023/12/24 09:15:20;;;;;;;0.22;0.22;;;10.60;99.90;;;;;;5051013;28;20236;-55
2023/12/24 09:17:46;;;;;;;0.63;0.63;;;10.60;99.90;;;;;;5051019;28;20240;-55
2023/12/24 09:20:11;;;;;;;0.88;0.32;;;10.60;99.90;;;;;;5051497;28;20217;-55
2023/12/24 09:22:37;;;;;;;0.47;0.47;;;10.60;99.90;;;;;;5050801;28;20167;-54
2023/12/24 09:25:04;;;;;;;0.57;0.57;;;10.60;99.90;;;;;;5051037;28;20764;-54
2023/12/24 09:27:30;;;;;;;0.40;0.40;;;10.60;99.90;;;;;;5050824;28;20158;-55
2023/12/24 09:29:55;;;;;;;0.25;0.25;;;10.60;99.90;;;;;;5050844;28;20186;-54
2023/12/24 09:32:21;;;;;;;1.15;0.65;;;10.60;99.90;;;;;;5050533;28;20185;-55
2023/12/24 09:34:46;;;;;;;0.50;0.50;;;10.60;99.90;;;;;;5050527;28;20206;-54
2023/12/24 09:37:12;;;;;;;0.30;0.30;;;10.60;99.90;;;;;;5051014;28;20216;-54
2023/12/24 09:39:38;;;;;;;1.30;0.60;;;10.60;99.90;;;;;;5050810;28;20203;-54
2023/12/24 09:42:04;;;;;;;0.75;0.43;;;10.70;99.90;;;;;;5050666;28;20205;-54
2023/12/24 09:44:30;;;;;;;2.28;0.82;;;10.70;99.90;;;;;;5050744;28;20167;-54
2023/12/24 09:46:56;;;;;;;0.30;0.30;;;10.70;99.90;;;;;;5050747;28;20163;-55
2023/12/24 09:49:21;;;;;;;0.63;0.63;;;10.70;99.90;;;;;;5050491;28;20174;-55
2023/12/24 09:51:48;;;;;;;0.52;0.40;;;10.80;99.90;;;;;;5050560;28;20604;-55
2023/12/24 09:54:14;;;;;;;0.60;0.60;;;10.70;99.90;;;;;;5050280;28;20682;-55
2023/12/24 09:56:40;;;;;;;1.48;0.75;;;10.70;99.90;;;;;;5052007;28;20181;-55
2023/12/24 09:59:05;;;;;;;0.90;0.60;;;10.80;99.90;;;;;;5054222;28;20198;-55
2023/12/24 10:01:42;;;;;;;0.17;0.17;;;10.80;99.90;;;;;;5053977;28;20163;-55
2023/12/24 10:04:07;;;;;;;0.10;0.10;;;10.80;99.90;;;;;;5053508;28;20169;-55
2023/12/24 10:06:50;;;;;;;0.43;0.43;;;10.80;99.90;;;;;;5054071;28;20767;-56
2023/12/24 10:09:15;;;;;;;0.30;0.30;;;10.80;99.90;;;;;;5053737;28;20173;-54
2023/12/24 10:11:41;;;;;;;0.75;0.28;;;10.80;99.90;;;;;;5054335;28;20167;-54
2023/12/24 10:14:06;;;;;;;0.40;0.40;;;10.70;99.90;;;;;;5053590;28;20530;-56
2023/12/24 10:16:42;;;;;;;0.50;0.50;;;10.80;99.90;;;;;;5053654;28;20661;-56
2023/12/24 10:19:08;;;;;;;0.95;0.70;;;10.80;99.90;;;;;;5053784;28;20210;-56
2023/12/24 10:21:34;;;;;;;0.70;0.50;;;10.80;99.90;;;;;;5053632;28;20521;-55
2023/12/24 10:24:04;;;;;;;0.30;0.30;;;10.80;99.90;;;;;;5052545;28;20635;-55
2023/12/24 10:26:29;;;;;;;0.40;0.40;;;10.80;99.90;;;;;;5053998;28;20175;-56
2023/12/24 10:28:55;;;;;;;0.25;0.25;;;10.80;99.90;;;;;;5053565;28;20592;-54
2023/12/24 10:31:20;;;;;;;0.10;0.10;;;10.80;99.90;;;;;;5053389;28;20610;-54
2023/12/24 10:33:46;;;;;;;1.45;0.70;;;10.80;99.90;;;;;;5052694;28;20253;-55
2023/12/24 10:36:11;;;;;;;1.17;0.55;;;10.80;99.90;;;;;;5054048;28;20250;-55
2023/12/24 10:38:37;;;;;;;0.20;0.20;;;10.80;99.90;;;;;;5053056;28;20666;-55
2023/12/24 10:41:06;;;;;;;1.20;0.63;;;10.80;99.90;;;;;;5053193;28;20240;-56
2023/12/24 10:43:31;;;;;;;2.20;0.57;;;10.80;99.90;;;;;;5052812;28;20171;-55
2023/12/24 10:45:57;;;;;;;0.40;0.40;;;10.80;99.90;;;;;;5052553;28;20178;-55
2023/12/24 10:48:22;;;;;;;1.88;0.43;;;10.80;99.90;;;;;;5052784;28;20169;-55
2023/12/24 10:50:50;;;;;;;0.50;0.50;;;10.80;99.90;;;;;;5053038;28;20171;-55
2023/12/24 10:53:15;;;;;;;0.45;0.45;;;10.90;99.90;;;;;;5053401;28;20182;-56
2023/12/24 10:55:50;;;;;;;0.60;0.60;;;10.90;99.90;;;;;;5052584;28;20215;-56
2023/12/24 10:58:36;;;;;;;0.50;0.50;;;10.90;99.90;;;;;;5053187;28;20204;-56
2023/12/24 11:01:09;;;;;;;0.35;0.35;;;8.70;99.90;;;;;;5052937;28;20198;-57
2023/12/24 11:03:48;;;;;;;1.13;0.95;;;10.90;99.90;;;;;;5051398;28;20202;-55
2023/12/24 11:06:36;;;;;;;0.60;0.35;;;10.90;99.90;;;;;;5053551;28;20166;-56
2023/12/24 11:09:08;;;;;;;0.85;0.70;;;10.90;99.90;;;;;;5051796;28;20163;-56
2023/12/24 11:11:53;;;;;;;0.70;0.70;;;10.90;99.90;;;;;;5053172;28;20249;-55
2023/12/24 11:14:36;;;;;;;0.98;0.80;;;10.90;99.90;;;;;;5052550;28;20193;-57
2023/12/24 11:17:02;;;;;;;1.80;0.98;;;10.90;99.90;;;;;;5052469;28;20622;-56
2023/12/24 11:19:28;;;;;;;3.83;1.20;;;11.00;99.90;;;;;;5052096;28;20236;-56
2023/12/24 11:22:11;;;;;;;2.30;1.40;;;11.00;99.90;;;;;;5052262;28;20799;-55
2023/12/24 11:24:44;;;;;;;1.52;1.20;;;11.00;99.90;;;;;;5052514;28;20525;-56
2023/12/24 11:27:10;;;;;;;1.90;1.40;;;11.00;99.90;;;;;;5052753;28;20170;-56
2023/12/24 11:29:42;;;;;;;1.48;1.38;;;11.10;99.90;;;;;;5052411;28;20630;-55
2023/12/24 11:32:26;;;;;;;1.20;1.10;;;11.10;99.90;;;;;;5051849;28;20630;-56
2023/12/24 11:34:53;;;;;;;1.50;1.40;;;11.10;99.90;;;;;;5051972;28;20185;-56
2023/12/24 11:37:35;;;;;;;1.63;1.05;;;11.20;99.90;;;;;;5052375;28;20166;-56
2023/12/24 11:40:08;;;;;;;1.27;1.15;;;11.20;99.90;;;;;;5051950;28;20202;-55
2023/12/24 11:42:44;;;;;;;1.10;1.00;;;11.20;99.90;;;;;;5052340;28;20527;-56
2023/12/24 11:45:21;;;;;;;1.48;1.20;;;11.20;99.90;;;;;;5052638;28;20174;-55
2023/12/24 11:47:47;;;;;;;2.83;1.40;;;11.30;99.90;;;;;;5052495;28;20641;-57
2023/12/24 11:50:13;;;;;;;1.60;1.50;;;11.30;99.90;;;;;;5051854;28;20649;-56
2023/12/24 11:52:46;;;;;;;1.13;0.90;;;11.30;99.90;;;;;;5052177;28;20253;-56
2023/12/24 11:55:18;;;;;;;2.42;1.23;;;11.30;99.90;;;;;;5051877;28;20210;-56
2023/12/24 11:57:49;;;;;;;2.17;1.38;;;11.30;99.90;;;;;;5052350;28;20159;-56
2023/12/24 12:00:24;;;;;;;2.08;1.20;;;11.30;99.90;;;;;;5052450;28;20240;-57
2023/12/24 12:02:58;;;;;;;2.72;1.10;;;11.30;99.90;;;;;;5051687;28;20166;-56
2023/12/24 12:05:24;;;;;;;0.95;0.95;;;11.40;99.90;;;;;;5051567;28;20206;-56
2023/12/24 12:07:53;;;;;;;0.68;0.68;;;11.40;99.90;;;;;;5051865;28;20182;-56
2023/12/24 12:10:18;;;;;;;0.90;0.85;;;11.40;99.90;;;;;;5051772;28;20163;-56
2023/12/24 12:12:44;;;;;;;2.55;1.08;;;11.40;99.90;;;;;;5052144;28;20167;-56
2023/12/24 12:15:10;;;;;;;1.48;1.20;;;11.40;99.90;;;;;;5051420;28;20174;-56
2023/12/24 12:17:36;;;;;;;2.53;1.25;;;11.40;99.90;;;;;;5051539;28;20649;-56
2023/12/24 12:20:02;;;;;;;1.33;0.93;;;11.40;99.90;;;;;;5051066;28;20214;-57
2023/12/24 12:22:28;;;;;;;0.75;0.75;;;11.40;99.90;;;;;;5051738;28;20185;-57
2023/12/24 12:24:54;;;;;;;0.60;0.60;;;11.40;99.90;;;;;;5051849;28;20166;-57
2023/12/24 12:27:19;;;;;;;0.80;0.70;;;11.30;99.90;;;;;;5051772;28;20657;-58
2023/12/24 12:29:45;;;;;;;2.85;0.80;;;11.30;99.90;;;;;;5050650;28;20249;-56
2023/12/24 12:32:10;;;;;;;1.00;1.00;;;11.20;99.90;;;;;;5051178;28;20257;-56
2023/12/24 12:34:36;;;;;;;1.48;0.90;;;11.20;99.90;;;;;;5051420;28;20167;-58
2023/12/24 12:37:03;;;;;;;2.25;1.05;;;11.20;99.90;;;;;;5051681;28;20174;-58
2023/12/24 12:39:28;;;;;;;0.85;0.70;;;11.10;99.90;;;;;;5051438;28;20214;-57
2023/12/24 12:41:54;;;;;;;1.33;1.10;;;11.10;99.90;;;;;;5051419;28;20538;-57
2023/12/24 12:44:19;;;;;;;2.78;0.57;;;11.10;99.90;;;;;;5051262;28;20249;-57
2023/12/24 12:46:45;;;;;;;1.02;1.02;;;11.00;99.90;;;;;;5051720;28;20594;-57
2023/12/24 12:49:10;;;;;;;0.50;0.50;;;11.00;99.90;;;;;;5050969;28;20588;-56